sensor_id;sensor_type;location;lat;lon;timestamp;P1;durP1;ratioP1;P2;durP2;ratioP2
22812;SDS011;11573;51.334;3.244;2023-07-30T00:02:16;28.90;;;7.07;;
22812;SDS011;11573;51.334;3.244;2023-07-30T00:04:44;29.40;;;7.03;;
22812;SDS011;11573;51.334;3.244;2023-07-30T00:07:12;31.63;;;6.38;;
22812;SDS011;11573;51.334;3.244;2023-07-30T00:09:39;31.08;;;6.38;;
22812;SDS011;11573;51.334;3.244;2023-07-30T00:12:06;27.42;;;7.10;;
22812;SDS011;11573;51.334;3.244;2023-07-30T00:14:34;33.97;;;6.63;;
22812;SDS011;11573;51.334;3.244;2023-07-30T00:17:01;28.83;;;6.55;;
22812;SDS011;11573;51.334;3.244;2023-07-30T00:19:29;33.50;;;6.63;;
22812;SDS011;11573;51.334;3.244;2023-07-30T00:21:56;28.88;;;6.97;;
22812;SDS011;11573;51.334;3.244;2023-07-30T00:24:23;26.80;;;6.22;;
22812;SDS011;11573;51.334;3.244;2023-07-30T00:26:50;29.65;;;7.43;;
22812;SDS011;11573;51.334;3.244;2023-07-30T00:29:17;31.63;;;6.55;;
22812;SDS011;11573;51.334;3.244;2023-07-30T00:31:44;29.80;;;6.50;;
22812;SDS011;11573;51.334;3.244;2023-07-30T00:34:11;34.20;;;6.25;;
22812;SDS011;11573;51.334;3.244;2023-07-30T00:36:38;44.45;;;7.60;;
22812;SDS011;11573;51.334;3.244;2023-07-30T00:39:05;33.80;;;6.70;;
22812;SDS011;11573;51.334;3.244;2023-07-30T00:41:33;27.67;;;7.05;;
22812;SDS011;11573;51.334;3.244;2023-07-30T00:44:00;37.10;;;6.63;;
22812;SDS011;11573;51.334;3.244;2023-07-30T00:46:27;27.33;;;6.82;;
22812;SDS011;11573;51.334;3.244;2023-07-30T00:48:56;26.25;;;6.25;;
22812;SDS011;11573;51.334;3.244;2023-07-30T00:51:23;32.00;;;6.32;;
22812;SDS011;11573;51.334;3.244;2023-07-30T00:53:52;30.20;;;5.88;;
22812;SDS011;11573;51.334;3.244;2023-07-30T00:56:19;35.72;;;7.65;;
22812;SDS011;11573;51.334;3.244;2023-07-30T00:58:46;36.83;;;6.25;;
22812;SDS011;11573;51.334;3.244;2023-07-30T01:01:15;39.75;;;6.57;;
22812;SDS011;11573;51.334;3.244;2023-07-30T01:03:43;33.08;;;7.10;;
22812;SDS011;11573;51.334;3.244;2023-07-30T01:06:10;35.35;;;6.53;;
22812;SDS011;11573;51.334;3.244;2023-07-30T01:08:37;36.60;;;7.65;;
22812;SDS011;11573;51.334;3.244;2023-07-30T01:11:05;38.83;;;6.72;;
22812;SDS011;11573;51.334;3.244;2023-07-30T01:13:32;31.70;;;6.95;;
22812;SDS011;11573;51.334;3.244;2023-07-30T01:16:01;35.42;;;7.35;;
22812;SDS011;11573;51.334;3.244;2023-07-30T01:18:29;33.55;;;7.22;;
22812;SDS011;11573;51.334;3.244;2023-07-30T01:20:59;42.65;;;6.55;;
22812;SDS011;11573;51.334;3.244;2023-07-30T01:23:26;30.10;;;7.05;;
22812;SDS011;11573;51.334;3.244;2023-07-30T01:25:58;30.48;;;6.65;;
22812;SDS011;11573;51.334;3.244;2023-07-30T01:28:32;40.38;;;8.82;;
22812;SDS011;11573;51.334;3.244;2023-07-30T01:31:04;43.47;;;7.75;;
22812;SDS011;11573;51.334;3.244;2023-07-30T01:33:32;39.60;;;7.43;;
22812;SDS011;11573;51.334;3.244;2023-07-30T01:35:59;41.90;;;7.50;;
22812;SDS011;11573;51.334;3.244;2023-07-30T01:38:28;42.33;;;7.10;;
22812;SDS011;11573;51.334;3.244;2023-07-30T01:40:58;41.95;;;7.10;;
22812;SDS011;11573;51.334;3.244;2023-07-30T01:43:24;32.80;;;7.00;;
22812;SDS011;11573;51.334;3.244;2023-07-30T01:45:51;28.30;;;6.50;;
22812;SDS011;11573;51.334;3.244;2023-07-30T01:48:19;39.22;;;7.57;;
22812;SDS011;11573;51.334;3.244;2023-07-30T01:50:46;30.17;;;7.38;;
22812;SDS011;11573;51.334;3.244;2023-07-30T01:53:16;37.00;;;7.82;;
22812;SDS011;11573;51.334;3.244;2023-07-30T01:55:43;45.25;;;7.25;;
22812;SDS011;11573;51.334;3.244;2023-07-30T01:58:12;39.83;;;7.32;;
22812;SDS011;11573;51.334;3.244;2023-07-30T02:00:40;29.42;;;6.43;;
22812;SDS011;11573;51.334;3.244;2023-07-30T02:03:07;40.92;;;7.38;;
22812;SDS011;11573;51.334;3.244;2023-07-30T02:05:34;40.42;;;7.28;;
22812;SDS011;11573;51.334;3.244;2023-07-30T02:08:01;37.58;;;7.10;;
22812;SDS011;11573;51.334;3.244;2023-07-30T02:10:29;38.20;;;6.90;;
22812;SDS011;11573;51.334;3.244;2023-07-30T02:12:56;39.28;;;7.75;;
22812;SDS011;11573;51.334;3.244;2023-07-30T02:15:23;36.60;;;7.65;;
22812;SDS011;11573;51.334;3.244;2023-07-30T02:17:50;50.30;;;8.55;;
22812;SDS011;11573;51.334;3.244;2023-07-30T02:20:17;46.65;;;7.85;;
22812;SDS011;11573;51.334;3.244;2023-07-30T02:22:45;32.20;;;7.88;;
22812;SDS011;11573;51.334;3.244;2023-07-30T02:25:12;46.22;;;8.45;;
22812;SDS011;11573;51.334;3.244;2023-07-30T02:27:39;42.03;;;7.82;;
22812;SDS011;11573;51.334;3.244;2023-07-30T02:30:06;31.15;;;7.78;;
22812;SDS011;11573;51.334;3.244;2023-07-30T02:32:33;33.55;;;8.10;;
22812;SDS011;11573;51.334;3.244;2023-07-30T02:35:00;34.40;;;7.60;;
22812;SDS011;11573;51.334;3.244;2023-07-30T02:37:27;48.70;;;8.48;;
22812;SDS011;11573;51.334;3.244;2023-07-30T02:39:54;48.45;;;8.40;;
22812;SDS011;11573;51.334;3.244;2023-07-30T02:42:21;37.33;;;8.00;;
22812;SDS011;11573;51.334;3.244;2023-07-30T02:44:48;31.02;;;7.60;;
22812;SDS011;11573;51.334;3.244;2023-07-30T02:47:15;36.42;;;7.40;;
22812;SDS011;11573;51.334;3.244;2023-07-30T02:49:42;43.53;;;7.90;;
22812;SDS011;11573;51.334;3.244;2023-07-30T02:52:09;35.58;;;7.40;;
22812;SDS011;11573;51.334;3.244;2023-07-30T02:54:36;44.97;;;7.40;;
22812;SDS011;11573;51.334;3.244;2023-07-30T02:57:03;33.78;;;7.32;;
22812;SDS011;11573;51.334;3.244;2023-07-30T02:59:30;30.55;;;7.05;;
22812;SDS011;11573;51.334;3.244;2023-07-30T03:01:59;31.88;;;6.72;;
22812;SDS011;11573;51.334;3.244;2023-07-30T03:04:26;40.67;;;7.47;;
22812;SDS011;11573;51.334;3.244;2023-07-30T03:06:52;32.65;;;6.40;;
22812;SDS011;11573;51.334;3.244;2023-07-30T03:09:19;34.47;;;7.40;;
22812;SDS011;11573;51.334;3.244;2023-07-30T03:11:46;34.42;;;7.68;;
22812;SDS011;11573;51.334;3.244;2023-07-30T03:14:13;41.97;;;8.57;;
22812;SDS011;11573;51.334;3.244;2023-07-30T03:16:40;39.25;;;7.50;;
22812;SDS011;11573;51.334;3.244;2023-07-30T03:19:07;44.58;;;8.00;;
22812;SDS011;11573;51.334;3.244;2023-07-30T03:21:34;37.92;;;7.95;;
22812;SDS011;11573;51.334;3.244;2023-07-30T03:24:02;36.83;;;7.60;;
22812;SDS011;11573;51.334;3.244;2023-07-30T03:26:29;43.17;;;7.88;;
22812;SDS011;11573;51.334;3.244;2023-07-30T03:28:56;35.78;;;8.05;;
22812;SDS011;11573;51.334;3.244;2023-07-30T03:31:23;38.00;;;7.80;;
22812;SDS011;11573;51.334;3.244;2023-07-30T03:33:51;42.65;;;8.15;;
22812;SDS011;11573;51.334;3.244;2023-07-30T03:36:18;40.67;;;7.22;;
22812;SDS011;11573;51.334;3.244;2023-07-30T03:38:45;39.65;;;7.07;;
22812;SDS011;11573;51.334;3.244;2023-07-30T03:41:12;42.67;;;7.38;;
22812;SDS011;11573;51.334;3.244;2023-07-30T03:43:39;36.30;;;8.02;;
22812;SDS011;11573;51.334;3.244;2023-07-30T03:46:06;38.22;;;6.90;;
22812;SDS011;11573;51.334;3.244;2023-07-30T03:48:33;41.15;;;7.22;;
22812;SDS011;11573;51.334;3.244;2023-07-30T03:51:00;47.78;;;7.68;;
22812;SDS011;11573;51.334;3.244;2023-07-30T03:53:29;30.17;;;6.78;;
22812;SDS011;11573;51.334;3.244;2023-07-30T03:55:56;42.75;;;7.45;;
22812;SDS011;11573;51.334;3.244;2023-07-30T03:58:23;51.05;;;7.57;;
22812;SDS011;11573;51.334;3.244;2023-07-30T04:00:50;40.88;;;7.65;;
22812;SDS011;11573;51.334;3.244;2023-07-30T04:03:17;42.88;;;7.80;;
22812;SDS011;11573;51.334;3.244;2023-07-30T04:05:44;37.95;;;7.07;;
22812;SDS011;11573;51.334;3.244;2023-07-30T04:08:11;37.00;;;7.28;;
22812;SDS011;11573;51.334;3.244;2023-07-30T04:10:38;36.25;;;7.43;;
22812;SDS011;11573;51.334;3.244;2023-07-30T04:13:05;39.45;;;8.32;;
22812;SDS011;11573;51.334;3.244;2023-07-30T04:15:34;37.28;;;8.13;;
22812;SDS011;11573;51.334;3.244;2023-07-30T04:18:01;37.15;;;8.32;;
22812;SDS011;11573;51.334;3.244;2023-07-30T04:20:28;39.00;;;6.93;;
22812;SDS011;11573;51.334;3.244;2023-07-30T04:22:55;46.00;;;8.48;;
22812;SDS011;11573;51.334;3.244;2023-07-30T04:25:23;36.95;;;7.30;;
22812;SDS011;11573;51.334;3.244;2023-07-30T04:27:50;54.60;;;8.27;;
22812;SDS011;11573;51.334;3.244;2023-07-30T04:30:18;46.78;;;8.35;;
22812;SDS011;11573;51.334;3.244;2023-07-30T04:32:46;34.30;;;7.40;;
22812;SDS011;11573;51.334;3.244;2023-07-30T04:35:14;37.15;;;8.18;;
22812;SDS011;11573;51.334;3.244;2023-07-30T04:37:41;36.15;;;6.97;;
22812;SDS011;11573;51.334;3.244;2023-07-30T04:40:08;49.15;;;8.15;;
22812;SDS011;11573;51.334;3.244;2023-07-30T04:42:36;39.08;;;6.82;;
22812;SDS011;11573;51.334;3.244;2023-07-30T04:45:03;39.80;;;7.95;;
22812;SDS011;11573;51.334;3.244;2023-07-30T04:47:33;42.70;;;7.13;;
22812;SDS011;11573;51.334;3.244;2023-07-30T04:50:00;35.08;;;7.07;;
22812;SDS011;11573;51.334;3.244;2023-07-30T04:52:29;37.08;;;7.40;;
22812;SDS011;11573;51.334;3.244;2023-07-30T04:54:56;43.63;;;6.95;;
22812;SDS011;11573;51.334;3.244;2023-07-30T04:57:23;35.25;;;6.53;;
22812;SDS011;11573;51.334;3.244;2023-07-30T04:59:50;49.88;;;8.35;;
22812;SDS011;11573;51.334;3.244;2023-07-30T05:02:17;36.40;;;6.85;;
22812;SDS011;11573;51.334;3.244;2023-07-30T05:04:44;42.67;;;7.32;;
22812;SDS011;11573;51.334;3.244;2023-07-30T05:07:11;39.45;;;7.28;;
22812;SDS011;11573;51.334;3.244;2023-07-30T05:09:38;40.67;;;7.60;;
22812;SDS011;11573;51.334;3.244;2023-07-30T05:12:05;36.00;;;6.63;;
22812;SDS011;11573;51.334;3.244;2023-07-30T05:14:32;43.90;;;7.03;;
22812;SDS011;11573;51.334;3.244;2023-07-30T05:16:59;34.45;;;6.32;;
22812;SDS011;11573;51.334;3.244;2023-07-30T05:19:26;31.55;;;6.22;;
22812;SDS011;11573;51.334;3.244;2023-07-30T05:21:53;41.58;;;7.10;;
22812;SDS011;11573;51.334;3.244;2023-07-30T05:24:20;37.83;;;6.55;;
22812;SDS011;11573;51.334;3.244;2023-07-30T05:26:47;31.02;;;6.15;;
22812;SDS011;11573;51.334;3.244;2023-07-30T05:29:14;37.83;;;6.47;;
22812;SDS011;11573;51.334;3.244;2023-07-30T05:31:41;34.45;;;6.72;;
22812;SDS011;11573;51.334;3.244;2023-07-30T05:34:08;38.83;;;7.00;;
22812;SDS011;11573;51.334;3.244;2023-07-30T05:36:35;33.88;;;6.47;;
22812;SDS011;11573;51.334;3.244;2023-07-30T05:39:02;38.63;;;6.47;;
22812;SDS011;11573;51.334;3.244;2023-07-30T05:41:29;43.38;;;6.88;;
22812;SDS011;11573;51.334;3.244;2023-07-30T05:43:56;36.45;;;6.07;;
22812;SDS011;11573;51.334;3.244;2023-07-30T05:46:23;42.40;;;7.30;;
22812;SDS011;11573;51.334;3.244;2023-07-30T05:48:50;42.08;;;7.63;;
22812;SDS011;11573;51.334;3.244;2023-07-30T05:51:17;33.78;;;7.05;;
22812;SDS011;11573;51.334;3.244;2023-07-30T05:53:44;37.38;;;6.30;;
22812;SDS011;11573;51.334;3.244;2023-07-30T05:56:11;34.85;;;6.30;;
22812;SDS011;11573;51.334;3.244;2023-07-30T05:58:40;29.85;;;6.72;;
22812;SDS011;11573;51.334;3.244;2023-07-30T06:01:07;39.10;;;7.88;;
22812;SDS011;11573;51.334;3.244;2023-07-30T06:03:34;43.83;;;7.50;;
22812;SDS011;11573;51.334;3.244;2023-07-30T06:06:01;32.65;;;6.03;;
22812;SDS011;11573;51.334;3.244;2023-07-30T06:08:28;33.10;;;5.90;;
22812;SDS011;11573;51.334;3.244;2023-07-30T06:11:00;30.08;;;5.90;;
22812;SDS011;11573;51.334;3.244;2023-07-30T06:13:29;45.67;;;7.53;;
22812;SDS011;11573;51.334;3.244;2023-07-30T06:15:56;38.05;;;7.90;;
22812;SDS011;11573;51.334;3.244;2023-07-30T06:18:23;39.33;;;7.07;;
22812;SDS011;11573;51.334;3.244;2023-07-30T06:20:50;34.67;;;6.72;;
22812;SDS011;11573;51.334;3.244;2023-07-30T06:23:17;25.70;;;6.20;;
22812;SDS011;11573;51.334;3.244;2023-07-30T06:25:44;39.08;;;6.68;;
22812;SDS011;11573;51.334;3.244;2023-07-30T06:28:11;31.10;;;6.80;;
22812;SDS011;11573;51.334;3.244;2023-07-30T06:30:38;31.63;;;7.03;;
22812;SDS011;11573;51.334;3.244;2023-07-30T06:33:06;33.38;;;5.88;;
22812;SDS011;11573;51.334;3.244;2023-07-30T06:35:33;37.03;;;5.90;;
22812;SDS011;11573;51.334;3.244;2023-07-30T06:38:00;34.05;;;6.45;;
22812;SDS011;11573;51.334;3.244;2023-07-30T06:40:27;33.28;;;6.38;;
22812;SDS011;11573;51.334;3.244;2023-07-30T06:42:54;30.27;;;5.88;;
22812;SDS011;11573;51.334;3.244;2023-07-30T06:45:20;30.67;;;7.28;;
22812;SDS011;11573;51.334;3.244;2023-07-30T06:47:47;26.45;;;5.45;;
22812;SDS011;11573;51.334;3.244;2023-07-30T06:50:14;27.40;;;5.53;;
22812;SDS011;11573;51.334;3.244;2023-07-30T06:52:41;29.60;;;5.70;;
22812;SDS011;11573;51.334;3.244;2023-07-30T06:55:08;26.77;;;5.68;;
22812;SDS011;11573;51.334;3.244;2023-07-30T06:57:36;28.08;;;6.25;;
22812;SDS011;11573;51.334;3.244;2023-07-30T07:00:03;31.48;;;7.07;;
22812;SDS011;11573;51.334;3.244;2023-07-30T07:02:31;27.27;;;5.82;;
22812;SDS011;11573;51.334;3.244;2023-07-30T07:04:59;37.15;;;6.35;;
22812;SDS011;11573;51.334;3.244;2023-07-30T07:07:26;29.65;;;7.03;;
22812;SDS011;11573;51.334;3.244;2023-07-30T07:09:53;29.70;;;5.70;;
22812;SDS011;11573;51.334;3.244;2023-07-30T07:12:20;23.63;;;5.75;;
22812;SDS011;11573;51.334;3.244;2023-07-30T07:14:47;28.17;;;6.28;;
22812;SDS011;11573;51.334;3.244;2023-07-30T07:17:14;28.35;;;6.13;;
22812;SDS011;11573;51.334;3.244;2023-07-30T07:19:41;25.67;;;5.85;;
22812;SDS011;11573;51.334;3.244;2023-07-30T07:22:08;25.58;;;5.72;;
22812;SDS011;11573;51.334;3.244;2023-07-30T07:24:35;24.45;;;5.05;;
22812;SDS011;11573;51.334;3.244;2023-07-30T07:27:02;22.30;;;5.10;;
22812;SDS011;11573;51.334;3.244;2023-07-30T07:29:29;26.08;;;5.18;;
22812;SDS011;11573;51.334;3.244;2023-07-30T07:31:57;20.55;;;4.13;;
22812;SDS011;11573;51.334;3.244;2023-07-30T07:34:24;20.58;;;4.32;;
22812;SDS011;11573;51.334;3.244;2023-07-30T07:36:51;19.30;;;4.53;;
22812;SDS011;11573;51.334;3.244;2023-07-30T07:39:18;19.40;;;4.80;;
22812;SDS011;11573;51.334;3.244;2023-07-30T07:41:46;16.83;;;3.45;;
22812;SDS011;11573;51.334;3.244;2023-07-30T07:44:13;17.90;;;3.60;;
22812;SDS011;11573;51.334;3.244;2023-07-30T07:46:40;15.65;;;4.10;;
22812;SDS011;11573;51.334;3.244;2023-07-30T07:49:07;14.23;;;3.17;;
22812;SDS011;11573;51.334;3.244;2023-07-30T07:51:35;15.30;;;2.88;;
22812;SDS011;11573;51.334;3.244;2023-07-30T07:54:02;15.10;;;3.20;;
22812;SDS011;11573;51.334;3.244;2023-07-30T07:56:30;21.33;;;3.78;;
22812;SDS011;11573;51.334;3.244;2023-07-30T07:58:57;22.60;;;4.50;;
22812;SDS011;11573;51.334;3.244;2023-07-30T08:01:24;19.17;;;4.40;;
22812;SDS011;11573;51.334;3.244;2023-07-30T08:03:52;16.83;;;3.35;;
22812;SDS011;11573;51.334;3.244;2023-07-30T08:06:19;16.23;;;3.65;;
22812;SDS011;11573;51.334;3.244;2023-07-30T08:08:46;17.92;;;3.38;;
22812;SDS011;11573;51.334;3.244;2023-07-30T08:11:13;16.88;;;3.33;;
22812;SDS011;11573;51.334;3.244;2023-07-30T08:13:40;13.18;;;2.83;;
22812;SDS011;11573;51.334;3.244;2023-07-30T08:16:07;17.63;;;4.25;;
22812;SDS011;11573;51.334;3.244;2023-07-30T08:18:34;25.17;;;7.20;;
22812;SDS011;11573;51.334;3.244;2023-07-30T08:21:01;69.72;;;27.45;;
22812;SDS011;11573;51.334;3.244;2023-07-30T08:23:28;20.10;;;6.43;;
22812;SDS011;11573;51.334;3.244;2023-07-30T08:25:55;21.27;;;5.63;;
22812;SDS011;11573;51.334;3.244;2023-07-30T08:28:22;23.55;;;5.95;;
22812;SDS011;11573;51.334;3.244;2023-07-30T08:30:49;24.02;;;4.10;;
22812;SDS011;11573;51.334;3.244;2023-07-30T08:33:16;16.20;;;5.15;;
22812;SDS011;11573;51.334;3.244;2023-07-30T08:35:43;18.63;;;3.92;;
22812;SDS011;11573;51.334;3.244;2023-07-30T08:38:10;20.67;;;7.95;;
22812;SDS011;11573;51.334;3.244;2023-07-30T08:40:37;14.50;;;2.75;;
22812;SDS011;11573;51.334;3.244;2023-07-30T08:43:04;10.77;;;3.28;;
22812;SDS011;11573;51.334;3.244;2023-07-30T08:45:31;21.05;;;6.20;;
22812;SDS011;11573;51.334;3.244;2023-07-30T08:47:58;14.77;;;4.32;;
22812;SDS011;11573;51.334;3.244;2023-07-30T08:50:25;10.75;;;2.80;;
22812;SDS011;11573;51.334;3.244;2023-07-30T08:52:54;11.50;;;2.58;;
22812;SDS011;11573;51.334;3.244;2023-07-30T08:55:22;11.02;;;3.03;;
22812;SDS011;11573;51.334;3.244;2023-07-30T08:57:50;19.92;;;3.38;;
22812;SDS011;11573;51.334;3.244;2023-07-30T09:00:18;11.88;;;2.85;;
22812;SDS011;11573;51.334;3.244;2023-07-30T09:02:54;17.08;;;3.17;;
22812;SDS011;11573;51.334;3.244;2023-07-30T09:05:25;10.90;;;2.92;;
22812;SDS011;11573;51.334;3.244;2023-07-30T09:07:56;11.32;;;2.72;;
22812;SDS011;11573;51.334;3.244;2023-07-30T09:10:25;12.68;;;2.75;;
22812;SDS011;11573;51.334;3.244;2023-07-30T09:12:54;10.05;;;2.75;;
22812;SDS011;11573;51.334;3.244;2023-07-30T09:15:32;11.18;;;3.05;;
22812;SDS011;11573;51.334;3.244;2023-07-30T09:18:00;15.45;;;2.90;;
22812;SDS011;11573;51.334;3.244;2023-07-30T09:20:30;15.77;;;3.28;;
22812;SDS011;11573;51.334;3.244;2023-07-30T09:23:04;14.25;;;3.15;;
22812;SDS011;11573;51.334;3.244;2023-07-30T09:25:36;14.25;;;2.95;;
22812;SDS011;11573;51.334;3.244;2023-07-30T09:28:05;12.48;;;2.70;;
22812;SDS011;11573;51.334;3.244;2023-07-30T09:30:33;16.70;;;3.60;;
22812;SDS011;11573;51.334;3.244;2023-07-30T09:33:00;13.10;;;3.13;;
22812;SDS011;11573;51.334;3.244;2023-07-30T09:35:27;16.35;;;2.83;;
22812;SDS011;11573;51.334;3.244;2023-07-30T09:38:01;8.77;;;2.45;;
22812;SDS011;11573;51.334;3.244;2023-07-30T09:40:33;11.95;;;3.08;;
22812;SDS011;11573;51.334;3.244;2023-07-30T09:43:03;16.65;;;3.55;;
22812;SDS011;11573;51.334;3.244;2023-07-30T09:45:33;18.25;;;3.58;;
22812;SDS011;11573;51.334;3.244;2023-07-30T09:48:05;12.32;;;3.13;;
22812;SDS011;11573;51.334;3.244;2023-07-30T09:50:36;15.95;;;3.30;;
22812;SDS011;11573;51.334;3.244;2023-07-30T09:53:03;14.30;;;3.55;;
22812;SDS011;11573;51.334;3.244;2023-07-30T09:55:31;12.70;;;3.35;;
22812;SDS011;11573;51.334;3.244;2023-07-30T09:57:58;13.65;;;2.60;;
22812;SDS011;11573;51.334;3.244;2023-07-30T10:00:25;12.35;;;2.97;;
22812;SDS011;11573;51.334;3.244;2023-07-30T10:02:55;12.88;;;3.30;;
22812;SDS011;11573;51.334;3.244;2023-07-30T10:05:23;12.85;;;3.05;;
22812;SDS011;11573;51.334;3.244;2023-07-30T10:07:56;12.82;;;3.10;;
22812;SDS011;11573;51.334;3.244;2023-07-30T10:10:28;14.35;;;3.42;;
22812;SDS011;11573;51.334;3.244;2023-07-30T10:12:58;13.00;;;2.90;;
22812;SDS011;11573;51.334;3.244;2023-07-30T10:15:28;16.55;;;3.20;;
22812;SDS011;11573;51.334;3.244;2023-07-30T10:17:56;16.73;;;3.20;;
22812;SDS011;11573;51.334;3.244;2023-07-30T10:20:27;14.35;;;2.83;;
22812;SDS011;11573;51.334;3.244;2023-07-30T10:22:58;14.80;;;3.03;;
22812;SDS011;11573;51.334;3.244;2023-07-30T10:28:31;18.60;;;3.83;;
22812;SDS011;11573;51.334;3.244;2023-07-30T10:31:01;23.67;;;3.63;;
22812;SDS011;11573;51.334;3.244;2023-07-30T10:33:50;18.38;;;3.40;;
22812;SDS011;11573;51.334;3.244;2023-07-30T10:36:32;17.80;;;2.75;;
22812;SDS011;11573;51.334;3.244;2023-07-30T10:41:46;14.35;;;3.30;;
22812;SDS011;11573;51.334;3.244;2023-07-30T10:44:26;11.07;;;2.78;;
22812;SDS011;11573;51.334;3.244;2023-07-30T10:47:02;17.33;;;3.65;;
22812;SDS011;11573;51.334;3.244;2023-07-30T10:49:36;20.00;;;3.72;;
22812;SDS011;11573;51.334;3.244;2023-07-30T10:52:04;10.93;;;2.67;;
22812;SDS011;11573;51.334;3.244;2023-07-30T10:54:35;15.68;;;2.72;;
22812;SDS011;11573;51.334;3.244;2023-07-30T10:57:03;13.20;;;3.15;;
22812;SDS011;11573;51.334;3.244;2023-07-30T10:59:34;16.60;;;3.72;;
22812;SDS011;11573;51.334;3.244;2023-07-30T11:02:03;20.73;;;3.88;;
22812;SDS011;11573;51.334;3.244;2023-07-30T11:04:33;21.92;;;4.20;;
22812;SDS011;11573;51.334;3.244;2023-07-30T11:07:01;21.15;;;4.40;;
22812;SDS011;11573;51.334;3.244;2023-07-30T11:09:30;17.77;;;3.65;;
22812;SDS011;11573;51.334;3.244;2023-07-30T11:11:57;19.63;;;3.67;;
22812;SDS011;11573;51.334;3.244;2023-07-30T11:14:24;30.55;;;4.20;;
22812;SDS011;11573;51.334;3.244;2023-07-30T11:19:20;19.10;;;3.58;;
22812;SDS011;11573;51.334;3.244;2023-07-30T11:21:48;16.77;;;3.75;;
22812;SDS011;11573;51.334;3.244;2023-07-30T11:24:20;18.88;;;4.05;;
22812;SDS011;11573;51.334;3.244;2023-07-30T11:26:57;19.67;;;3.45;;
22812;SDS011;11573;51.334;3.244;2023-07-30T11:29:25;16.67;;;3.80;;
22812;SDS011;11573;51.334;3.244;2023-07-30T11:31:55;17.15;;;4.15;;
22812;SDS011;11573;51.334;3.244;2023-07-30T11:34:24;27.02;;;4.28;;
22812;SDS011;11573;51.334;3.244;2023-07-30T11:36:53;18.55;;;3.80;;
22812;SDS011;11573;51.334;3.244;2023-07-30T11:39:20;15.57;;;3.70;;
22812;SDS011;11573;51.334;3.244;2023-07-30T11:41:50;23.05;;;4.53;;
22812;SDS011;11573;51.334;3.244;2023-07-30T11:44:35;14.90;;;3.78;;
22812;SDS011;11573;51.334;3.244;2023-07-30T11:47:07;18.15;;;4.43;;
22812;SDS011;11573;51.334;3.244;2023-07-30T11:49:36;20.92;;;4.85;;
22812;SDS011;11573;51.334;3.244;2023-07-30T11:54:35;16.58;;;3.70;;
22812;SDS011;11573;51.334;3.244;2023-07-30T11:57:02;22.17;;;4.65;;
22812;SDS011;11573;51.334;3.244;2023-07-30T11:59:32;23.25;;;4.53;;
22812;SDS011;11573;51.334;3.244;2023-07-30T12:02:00;18.70;;;4.47;;
22812;SDS011;11573;51.334;3.244;2023-07-30T12:04:31;17.48;;;3.90;;
22812;SDS011;11573;51.334;3.244;2023-07-30T12:07:09;19.52;;;4.20;;
22812;SDS011;11573;51.334;3.244;2023-07-30T12:09:36;13.30;;;4.10;;
22812;SDS011;11573;51.334;3.244;2023-07-30T12:12:04;22.52;;;4.80;;
22812;SDS011;11573;51.334;3.244;2023-07-30T12:17:09;20.67;;;3.92;;
22812;SDS011;11573;51.334;3.244;2023-07-30T12:19:37;23.63;;;4.65;;
22812;SDS011;11573;51.334;3.244;2023-07-30T12:22:04;22.27;;;4.75;;
22812;SDS011;11573;51.334;3.244;2023-07-30T12:24:31;27.88;;;5.47;;
22812;SDS011;11573;51.334;3.244;2023-07-30T12:26:58;21.45;;;4.93;;
22812;SDS011;11573;51.334;3.244;2023-07-30T12:29:25;18.98;;;5.35;;
22812;SDS011;11573;51.334;3.244;2023-07-30T12:31:52;18.35;;;4.40;;
22812;SDS011;11573;51.334;3.244;2023-07-30T12:34:23;18.02;;;4.38;;
22812;SDS011;11573;51.334;3.244;2023-07-30T12:36:50;18.13;;;4.47;;
22812;SDS011;11573;51.334;3.244;2023-07-30T12:39:18;19.08;;;5.28;;
22812;SDS011;11573;51.334;3.244;2023-07-30T12:41:45;17.85;;;4.60;;
22812;SDS011;11573;51.334;3.244;2023-07-30T12:44:11;14.80;;;4.30;;
22812;SDS011;11573;51.334;3.244;2023-07-30T12:46:39;16.15;;;4.60;;
22812;SDS011;11573;51.334;3.244;2023-07-30T12:49:06;27.60;;;4.75;;
22812;SDS011;11573;51.334;3.244;2023-07-30T12:51:33;13.10;;;3.70;;
22812;SDS011;11573;51.334;3.244;2023-07-30T12:54:00;21.27;;;4.97;;
22812;SDS011;11573;51.334;3.244;2023-07-30T12:56:27;20.38;;;4.50;;
22812;SDS011;11573;51.334;3.244;2023-07-30T12:58:54;18.02;;;5.03;;
22812;SDS011;11573;51.334;3.244;2023-07-30T13:01:21;17.35;;;4.53;;
22812;SDS011;11573;51.334;3.244;2023-07-30T13:03:50;20.58;;;5.00;;
22812;SDS011;11573;51.334;3.244;2023-07-30T13:06:18;18.60;;;4.95;;
22812;SDS011;11573;51.334;3.244;2023-07-30T13:08:46;20.35;;;5.32;;
22812;SDS011;11573;51.334;3.244;2023-07-30T13:11:13;20.38;;;5.40;;
22812;SDS011;11573;51.334;3.244;2023-07-30T13:13:40;25.20;;;5.25;;
22812;SDS011;11573;51.334;3.244;2023-07-30T13:16:07;34.47;;;5.82;;
22812;SDS011;11573;51.334;3.244;2023-07-30T13:18:34;21.08;;;5.18;;
22812;SDS011;11573;51.334;3.244;2023-07-30T13:21:01;31.92;;;6.38;;
22812;SDS011;11573;51.334;3.244;2023-07-30T13:23:29;20.52;;;5.35;;
22812;SDS011;11573;51.334;3.244;2023-07-30T13:25:56;17.27;;;4.68;;
22812;SDS011;11573;51.334;3.244;2023-07-30T13:28:23;21.80;;;5.35;;
22812;SDS011;11573;51.334;3.244;2023-07-30T13:30:50;16.73;;;5.00;;
22812;SDS011;11573;51.334;3.244;2023-07-30T13:33:19;22.00;;;5.00;;
22812;SDS011;11573;51.334;3.244;2023-07-30T13:35:46;21.67;;;5.93;;
22812;SDS011;11573;51.334;3.244;2023-07-30T13:38:13;19.40;;;5.90;;
22812;SDS011;11573;51.334;3.244;2023-07-30T13:40:40;20.95;;;5.78;;
22812;SDS011;11573;51.334;3.244;2023-07-30T13:43:07;20.48;;;5.18;;
22812;SDS011;11573;51.334;3.244;2023-07-30T13:45:34;19.13;;;5.03;;
22812;SDS011;11573;51.334;3.244;2023-07-30T13:48:01;20.35;;;4.72;;
22812;SDS011;11573;51.334;3.244;2023-07-30T13:50:28;11.48;;;4.60;;
22812;SDS011;11573;51.334;3.244;2023-07-30T13:52:55;12.50;;;4.18;;
22812;SDS011;11573;51.334;3.244;2023-07-30T13:55:22;19.48;;;5.50;;
22812;SDS011;11573;51.334;3.244;2023-07-30T13:57:49;18.48;;;4.85;;
22812;SDS011;11573;51.334;3.244;2023-07-30T14:00:16;21.85;;;5.88;;
22812;SDS011;11573;51.334;3.244;2023-07-30T14:02:43;25.35;;;6.40;;
22812;SDS011;11573;51.334;3.244;2023-07-30T14:05:10;29.42;;;6.28;;
22812;SDS011;11573;51.334;3.244;2023-07-30T14:07:37;25.27;;;7.00;;
22812;SDS011;11573;51.334;3.244;2023-07-30T14:10:06;22.95;;;6.72;;
22812;SDS011;11573;51.334;3.244;2023-07-30T14:12:33;24.38;;;6.68;;
22812;SDS011;11573;51.334;3.244;2023-07-30T14:15:01;20.15;;;5.82;;
22812;SDS011;11573;51.334;3.244;2023-07-30T14:17:28;25.63;;;7.95;;
22812;SDS011;11573;51.334;3.244;2023-07-30T14:19:55;22.52;;;6.72;;
22812;SDS011;11573;51.334;3.244;2023-07-30T14:22:22;26.63;;;7.13;;
22812;SDS011;11573;51.334;3.244;2023-07-30T14:24:49;25.15;;;6.97;;
22812;SDS011;11573;51.334;3.244;2023-07-30T14:27:17;27.30;;;7.20;;
22812;SDS011;11573;51.334;3.244;2023-07-30T14:29:44;17.45;;;5.70;;
22812;SDS011;11573;51.334;3.244;2023-07-30T14:32:11;17.58;;;5.63;;
22812;SDS011;11573;51.334;3.244;2023-07-30T14:34:38;13.10;;;5.68;;
22812;SDS011;11573;51.334;3.244;2023-07-30T14:37:05;22.65;;;6.82;;
22812;SDS011;11573;51.334;3.244;2023-07-30T14:39:35;16.70;;;5.97;;
22812;SDS011;11573;51.334;3.244;2023-07-30T14:42:02;17.70;;;5.10;;
22812;SDS011;11573;51.334;3.244;2023-07-30T14:44:29;13.57;;;5.45;;
22812;SDS011;11573;51.334;3.244;2023-07-30T14:46:56;15.20;;;5.35;;
22812;SDS011;11573;51.334;3.244;2023-07-30T14:49:24;11.35;;;3.72;;
22812;SDS011;11573;51.334;3.244;2023-07-30T14:51:52;13.10;;;4.03;;